Terminal Aerodrome Forecast
Issued by NWS

Home | Current Version | Previous Version | Text Only | Print | Product List | Glossary On
Versions: 1 2 3 4 5 6 7 8 9 10 11 12 13 14 15 16 17 18
000
FTUS41 KCAR 291730
TAFBHB
TAF
KBHB 291730Z 2918/3018 00000KT P6SM FEW200
     FM300300 16006KT P6SM BKN015
     FM301200 14009KT 5SM -SN BKN009 OVC030
     FM301700 13012KT 1SM -SN OVC009
      AMD LTD TO CLD VIS AND WIND=

USA.gov is the U.S. government's official web portal to all federal, state and local government web resources and services.